createdAt,value
2022-10-30T00:00:46.989Z,95547.41
2022-10-30T00:01:48.600Z,95545.34
2022-10-30T00:02:50.266Z,95548.91
2022-10-30T00:03:51.846Z,95545.34
2022-10-30T00:04:53.366Z,95544.59
2022-10-30T00:05:55.302Z,95545.34
2022-10-30T00:06:56.932Z,95547.41
2022-10-30T00:07:59.147Z,95547.41
2022-10-30T00:09:00.996Z,95545.91
2022-10-30T00:10:02.573Z,95547.41
2022-10-30T00:11:09.455Z,95549.97
2022-10-30T00:12:11.019Z,95548.91
2022-10-30T00:13:13.802Z,95538.78
2022-10-30T00:14:15.407Z,95544.16
2022-10-30T00:15:17.118Z,95539.31
2022-10-30T00:16:18.696Z,95542.13
2022-10-30T00:17:20.215Z,95540.63
2022-10-30T00:18:21.933Z,95536.28
2022-10-30T00:19:23.496Z,95542.66
2022-10-30T00:20:25.244Z,95543.19
2022-10-30T00:21:26.842Z,95548.03
2022-10-30T00:22:28.436Z,95546.97
2022-10-30T00:23:29.948Z,95552.56
2022-10-30T00:24:31.473Z,95543.94
2022-10-30T00:25:35.325Z,95549.31
2022-10-30T00:26:36.852Z,95550.81
2022-10-30T00:27:38.408Z,95550.81
2022-10-30T00:28:40.035Z,95539.41
2022-10-30T00:29:41.904Z,95542.19
2022-10-30T00:30:43.441Z,95546.53
2022-10-30T00:31:45.045Z,95545.00
2022-10-30T00:32:46.573Z,95541.25
2022-10-30T00:33:52.637Z,95543.28
2022-10-30T00:34:54.224Z,95550.59
2022-10-30T00:35:55.798Z,95548.88
2022-10-30T00:36:57.367Z,95544.78
2022-10-30T00:38:00.798Z,95539.19
2022-10-30T00:39:03.999Z,95551.13
2022-10-30T00:40:06.809Z,95540.50
2022-10-30T00:41:15.137Z,95537.44
2022-10-30T00:42:17.672Z,95543.28
2022-10-30T00:43:27.150Z,95537.75
2022-10-30T00:44:50.829Z,95538.50
2022-10-30T00:45:52.534Z,95534.13
2022-10-30T00:46:54.377Z,95545.84
2022-10-30T00:48:01.743Z,95538.50
2022-10-30T00:49:13.875Z,95537.75
2022-10-30T00:50:22.387Z,95531.84
2022-10-30T00:51:25.240Z,95529.06
2022-10-30T00:52:30.191Z,95541.53
2022-10-30T00:53:32.155Z,95531.66
2022-10-30T00:54:35.626Z,95544.09
2022-10-30T00:55:44.109Z,95542.59
2022-10-30T00:56:48.868Z,95532.91
2022-10-30T00:57:50.945Z,95532.91
2022-10-30T00:59:06.393Z,95529.47
2022-10-30T01:00:09.361Z,95535.72
2022-10-30T01:01:16.878Z,95531.72
2022-10-30T01:02:20.348Z,95531.22
2022-10-30T01:03:23.217Z,95528.41
2022-10-30T01:04:29.949Z,95528.41
2022-10-30T01:05:33.529Z,95528.41
2022-10-30T01:06:38.922Z,95527.44
2022-10-30T01:07:40.437Z,95531.72
2022-10-30T01:08:43.104Z,95521.06
2022-10-30T01:09:46.933Z,95529.47
2022-10-30T01:10:49.576Z,95522.59
2022-10-30T01:11:51.157Z,95518.28
2022-10-30T01:12:54.201Z,95519.56
2022-10-30T01:13:58.820Z,95514.50
2022-10-30T01:15:01.026Z,95518.81
2022-10-30T01:16:20.554Z,95517.59
2022-10-30T01:17:37.267Z,95511.50
2022-10-30T01:18:47.801Z,95504.31
2022-10-30T01:20:13.429Z,95506.41
2022-10-30T01:21:34.262Z,95501.06
2022-10-30T01:22:45.628Z,95500.81
2022-10-30T01:24:10.360Z,95502.13
2022-10-30T01:25:30.403Z,95497.22
2022-10-30T01:26:40.919Z,95506.41
2022-10-30T01:28:02.133Z,95493.47
2022-10-30T01:29:20.176Z,95496.25
2022-10-30T01:30:41.201Z,95492.72
2022-10-30T01:31:58.657Z,95496.81
2022-10-30T01:33:05.865Z,95502.31
2022-10-30T01:34:25.653Z,95495.03
2022-10-30T01:35:47.388Z,95504.44
2022-10-30T01:37:06.505Z,95506.22
2022-10-30T01:38:17.423Z,95497.56
2022-10-30T01:39:22.748Z,95498.63
2022-10-30T01:40:24.320Z,95502.94
2022-10-30T01:41:25.842Z,95499.41
2022-10-30T01:42:45.671Z,95494.63
2022-10-30T01:43:50.990Z,95495.63
2022-10-30T01:44:52.550Z,95499.91
2022-10-30T01:46:12.738Z,95493.56
2022-10-30T01:47:44.137Z,95491.38
2022-10-30T01:49:16.201Z,95489.88
2022-10-30T01:50:37.051Z,95481.72
2022-10-30T01:51:51.532Z,95493.88
2022-10-30T01:53:03.735Z,95491.06
2022-10-30T01:54:23.711Z,95501.22
2022-10-30T01:55:43.008Z,95494.94
2022-10-30T01:56:47.269Z,95493.88
2022-10-30T01:58:02.463Z,95497.72
2022-10-30T01:59:43.099Z,95494.19
2022-10-30T02:00:47.705Z,95488.28
2022-10-30T02:01:50.008Z,95487.00
2022-10-30T02:02:52.116Z,95494.09
2022-10-30T02:03:53.899Z,95490.88
2022-10-30T02:04:55.723Z,95490.88
2022-10-30T02:05:57.326Z,95496.97
2022-10-30T02:06:58.902Z,95486.53
2022-10-30T02:08:02.003Z,95489.13
2022-10-30T02:09:04.771Z,95494.72
2022-10-30T02:10:06.781Z,95492.69
2022-10-30T02:11:10.736Z,95489.13
2022-10-30T02:12:13.357Z,95483.75
2022-10-30T02:13:15.513Z,95482.47
2022-10-30T02:14:41.141Z,95482.00
2022-10-30T02:15:45.080Z,95491.06
2022-10-30T02:16:51.629Z,95484.00
2022-10-30T02:17:54.655Z,95489.56
2022-10-30T02:18:56.334Z,95478.41
2022-10-30T02:19:57.874Z,95486.03
2022-10-30T02:20:59.389Z,95481.72
2022-10-30T02:22:01.400Z,95478.69
2022-10-30T02:23:03.475Z,95479.69
2022-10-30T02:24:05.792Z,95483.00
2022-10-30T02:25:07.599Z,95477.94
2022-10-30T02:26:09.106Z,95477.94
2022-10-30T02:27:10.793Z,95479.44
2022-10-30T02:28:12.820Z,95475.38
2022-10-30T02:29:14.493Z,95483.75
2022-10-30T02:30:16.391Z,95482.25
2022-10-30T02:31:19.299Z,95480.97
2022-10-30T02:32:20.822Z,95476.66
2022-10-30T02:33:24.533Z,95480.97
2022-10-30T02:34:26.155Z,95483.53
2022-10-30T02:35:27.679Z,95483.53
2022-10-30T02:36:29.271Z,95480.97
2022-10-30T02:37:32.269Z,95476.66
2022-10-30T02:38:33.826Z,95475.66
2022-10-30T02:39:35.374Z,95472.34
2022-10-30T02:40:36.972Z,95474.91
2022-10-30T02:41:38.979Z,95465.25
2022-10-30T02:42:40.499Z,95466.78
2022-10-30T02:43:42.133Z,95471.81
2022-10-30T02:44:43.692Z,95478.16
2022-10-30T02:45:51.826Z,95470.81
2022-10-30T02:46:53.355Z,95474.63
2022-10-30T02:47:55.040Z,95474.63
2022-10-30T02:48:56.710Z,95473.84
2022-10-30T02:49:58.222Z,95482.00
2022-10-30T02:51:01.259Z,95479.22
2022-10-30T02:52:03.276Z,95479.44
2022-10-30T02:53:04.844Z,95472.34
2022-10-30T02:54:06.373Z,95480.75
2022-10-30T02:55:08.340Z,95478.69
2022-10-30T02:56:14.404Z,95483.53
2022-10-30T02:57:15.977Z,95487.84
2022-10-30T02:58:17.501Z,95480.00
2022-10-30T02:59:20.623Z,95485.78
2022-10-30T03:00:22.150Z,95485.03
2022-10-30T03:01:23.743Z,95482.00
2022-10-30T03:02:25.403Z,95495.47
2022-10-30T03:03:27.014Z,95483.53
2022-10-30T03:04:28.771Z,95482.00
2022-10-30T03:05:30.315Z,95482.00
2022-10-30T03:06:32.132Z,95484.59
2022-10-30T03:07:33.850Z,95490.19
2022-10-30T03:08:35.705Z,95485.34
2022-10-30T03:09:37.239Z,95495.78
2022-10-30T03:10:38.784Z,95494.28
2022-10-30T03:11:40.365Z,95487.94
2022-10-30T03:12:41.886Z,95493.53
2022-10-30T03:13:45.300Z,95496.09
2022-10-30T03:14:46.813Z,95493.53
2022-10-30T03:15:48.322Z,95493.53
2022-10-30T03:16:52.489Z,95498.34
2022-10-30T03:17:54.081Z,95505.47
2022-10-30T03:18:56.124Z,95503.41
2022-10-30T03:19:57.675Z,95499.88
2022-10-30T03:21:04.532Z,95505.00
2022-10-30T03:22:06.088Z,95499.63
2022-10-30T03:23:07.604Z,95509.53
2022-10-30T03:24:09.105Z,95502.44
2022-10-30T03:25:10.612Z,95506.50
2022-10-30T03:26:12.433Z,95503.72
2022-10-30T03:27:14.008Z,95505.00
2022-10-30T03:28:15.513Z,95500.94
2022-10-30T03:29:17.058Z,95506.50
2022-10-30T03:30:18.559Z,95499.44
2022-10-30T03:31:20.405Z,95499.19
2022-10-30T03:32:21.966Z,95497.91
2022-10-30T03:33:23.571Z,95496.63
2022-10-30T03:34:25.077Z,95492.53
2022-10-30T03:35:26.734Z,95488.25
2022-10-30T03:36:28.294Z,95486.72
2022-10-30T03:37:29.810Z,95481.13
2022-10-30T03:38:31.705Z,95488.25
2022-10-30T03:39:33.323Z,95482.66
2022-10-30T03:40:34.818Z,95489.75
2022-10-30T03:41:36.337Z,95497.38
2022-10-30T03:42:40.150Z,95496.41
2022-10-30T03:43:41.690Z,95497.91
2022-10-30T03:44:43.217Z,95495.84
2022-10-30T03:45:49.497Z,95491.84
2022-10-30T03:46:50.995Z,95489.31
2022-10-30T03:47:52.511Z,95489.31
2022-10-30T03:48:54.472Z,95490.81
2022-10-30T03:49:55.973Z,95489.31
2022-10-30T03:50:59.480Z,95483.72
2022-10-30T03:52:00.982Z,95487.78
2022-10-30T03:53:03.471Z,95487.03
2022-10-30T03:54:05.039Z,95486.25
2022-10-30T03:55:07.062Z,95478.44
2022-10-30T03:56:10.070Z,95485.81
2022-10-30T03:57:11.645Z,95491.09
2022-10-30T03:58:13.193Z,95489.06
2022-10-30T03:59:14.739Z,95493.91
2022-10-30T04:00:17.277Z,95488.84
2022-10-30T04:01:19.305Z,95490.34
2022-10-30T04:02:20.918Z,95487.56
2022-10-30T04:03:22.439Z,95484.75
2022-10-30T04:04:24.034Z,95484.00
2022-10-30T04:05:26.758Z,95477.69
2022-10-30T04:06:28.326Z,95479.19
2022-10-30T04:07:29.942Z,95479.19
2022-10-30T04:08:31.443Z,95476.94
2022-10-30T04:09:33.032Z,95471.34
2022-10-30T04:10:35.364Z,95467.78
2022-10-30T04:11:36.873Z,95467.78
2022-10-30T04:12:39.109Z,95471.84
2022-10-30T04:13:40.672Z,95469.81
2022-10-30T04:14:42.212Z,95471.09
2022-10-30T04:15:44.021Z,95471.63
2022-10-30T04:16:45.570Z,95474.44
2022-10-30T04:17:51.536Z,95474.19
2022-10-30T04:18:53.087Z,95482.06
2022-10-30T04:19:54.619Z,95480.78
2022-10-30T04:20:56.249Z,95484.31
2022-10-30T04:21:58.170Z,95479.78
2022-10-30T04:23:03.324Z,95473.97
2022-10-30T04:24:05.138Z,95472.69
2022-10-30T04:25:06.957Z,95475.50
2022-10-30T04:26:08.767Z,95477.53
2022-10-30T04:27:10.265Z,95471.94
2022-10-30T04:28:12.249Z,95474.94
2022-10-30T04:29:13.751Z,95476.25
2022-10-30T04:30:15.700Z,95480.53
2022-10-30T04:31:17.208Z,95475.50
2022-10-30T04:32:19.422Z,95479.78
2022-10-30T04:33:20.965Z,95474.72
2022-10-30T04:34:22.566Z,95478.28
2022-10-30T04:35:26.657Z,95475.50
2022-10-30T04:36:32.967Z,95479.78
2022-10-30T04:37:34.509Z,95479.78
2022-10-30T04:38:36.045Z,95479.28
2022-10-30T04:39:40.989Z,95478.28
2022-10-30T04:40:46.913Z,95476.78
2022-10-30T04:41:48.429Z,95482.13
2022-10-30T04:42:50.125Z,95478.59
2022-10-30T04:43:52.205Z,95487.22
2022-10-30T04:44:53.796Z,95478.59
2022-10-30T04:45:55.303Z,95479.34
2022-10-30T04:46:56.866Z,95480.63
2022-10-30T04:48:06.571Z,95487.81
2022-10-30T04:49:08.090Z,95487.50
2022-10-30T04:50:10.410Z,95488.78
2022-10-30T04:51:12.377Z,95483.41
2022-10-30T04:52:13.878Z,95485.97
2022-10-30T04:53:17.877Z,95493.09
2022-10-30T04:54:21.057Z,95485.97
2022-10-30T04:55:22.564Z,95493.09
2022-10-30T04:56:24.260Z,95496.41
2022-10-30T04:57:25.854Z,95494.16
2022-10-30T04:58:27.369Z,95492.31
2022-10-30T04:59:28.886Z,95494.34
2022-10-30T05:00:32.004Z,95494.91
2022-10-30T05:01:33.590Z,95497.69
2022-10-30T05:02:39.229Z,95499.75
2022-10-30T05:03:41.009Z,95499.75
2022-10-30T05:04:42.564Z,95495.66
2022-10-30T05:05:44.502Z,95494.91
2022-10-30T05:06:46.023Z,95495.44
2022-10-30T05:07:47.574Z,95496.94
2022-10-30T05:08:49.675Z,95487.06
2022-10-30T05:09:51.242Z,95498.25
2022-10-30T05:10:53.760Z,95499.75
2022-10-30T05:11:58.977Z,95502.00
2022-10-30T05:13:01.663Z,95499.75
2022-10-30T05:14:03.498Z,95503.81
2022-10-30T05:15:05.467Z,95506.84
2022-10-30T05:16:07.527Z,95501.25
2022-10-30T05:17:09.070Z,95509.63
2022-10-30T05:18:10.616Z,95506.84
2022-10-30T05:19:12.148Z,95508.13
2022-10-30T05:20:16.385Z,95510.16
2022-10-30T05:21:20.464Z,95503.28
2022-10-30T05:22:21.976Z,95512.41
2022-10-30T05:23:23.508Z,95504.78
2022-10-30T05:24:25.056Z,95502.75
2022-10-30T05:25:27.694Z,95499.75
2022-10-30T05:26:29.192Z,95509.63
2022-10-30T05:27:30.699Z,95498.25
2022-10-30T05:28:32.309Z,95506.84
2022-10-30T05:29:33.851Z,95505.53
2022-10-30T05:30:35.953Z,95513.91
2022-10-30T05:31:37.498Z,95511.38
2022-10-30T05:32:39.039Z,95512.66
2022-10-30T05:33:40.573Z,95516.97
2022-10-30T05:34:42.234Z,95505.78
2022-10-30T05:35:43.754Z,95514.91
2022-10-30T05:36:45.651Z,95507.81
2022-10-30T05:37:47.178Z,95511.38
2022-10-30T05:38:49.000Z,95507.81
2022-10-30T05:39:50.554Z,95511.38
2022-10-30T05:40:52.086Z,95506.53
2022-10-30T05:41:53.752Z,95506.53
2022-10-30T05:42:55.560Z,95512.88
2022-10-30T05:43:57.351Z,95512.66
2022-10-30T05:45:01.654Z,95504.28
2022-10-30T05:46:03.851Z,95512.13
2022-10-30T05:47:05.393Z,95507.81
2022-10-30T05:48:07.571Z,95508.56
2022-10-30T05:49:09.120Z,95512.88
2022-10-30T05:50:12.391Z,95514.38
2022-10-30T05:51:13.932Z,95508.78
2022-10-30T05:52:15.519Z,95508.03
2022-10-30T05:53:17.046Z,95501.94
2022-10-30T05:54:18.552Z,95499.88
2022-10-30T05:55:20.046Z,95497.84
2022-10-30T05:56:21.588Z,95502.13
2022-10-30T05:57:23.193Z,95497.59
2022-10-30T05:58:24.969Z,95503.19
2022-10-30T05:59:26.475Z,95499.13
2022-10-30T06:00:32.113Z,95503.19
2022-10-30T06:01:33.866Z,95501.19
2022-10-30T06:02:35.557Z,95501.69
2022-10-30T06:03:37.055Z,95502.97
2022-10-30T06:04:38.548Z,95501.19
2022-10-30T06:05:40.423Z,95500.63
2022-10-30T06:06:41.956Z,95503.19
2022-10-30T06:07:43.536Z,95507.53
2022-10-30T06:08:45.116Z,95501.38
2022-10-30T06:09:46.668Z,95499.88
2022-10-30T06:10:48.169Z,95506.22
2022-10-30T06:11:49.740Z,95508.28
2022-10-30T06:13:00.389Z,95510.63
2022-10-30T06:14:02.425Z,95503.44
2022-10-30T06:15:04.330Z,95511.81
2022-10-30T06:16:06.191Z,95502.88
2022-10-30T06:17:07.833Z,95508.47
2022-10-30T06:18:09.453Z,95512.03
2022-10-30T06:19:15.605Z,95508.47
2022-10-30T06:20:21.834Z,95501.84
2022-10-30T06:21:23.461Z,95510.97
2022-10-30T06:22:24.961Z,95503.88
2022-10-30T06:23:28.709Z,95500.78
2022-10-30T06:24:30.246Z,95500.53
2022-10-30T06:25:37.905Z,95500.78
2022-10-30T06:26:42.098Z,95509.72
2022-10-30T06:27:43.641Z,95498.53
2022-10-30T06:28:45.222Z,95505.63
2022-10-30T06:29:46.780Z,95501.53
2022-10-30T06:30:48.400Z,95502.28
2022-10-30T06:31:49.997Z,95514.22
2022-10-30T06:33:00.449Z,95513.47
2022-10-30T06:34:02.318Z,95504.03
2022-10-30T06:35:04.160Z,95511.66
2022-10-30T06:36:05.920Z,95513.69
2022-10-30T06:37:07.630Z,95513.91
2022-10-30T06:38:11.977Z,95504.03
2022-10-30T06:39:13.555Z,95509.63
2022-10-30T06:40:16.156Z,95506.81
2022-10-30T06:41:17.708Z,95506.81
2022-10-30T06:42:19.202Z,95518.75
2022-10-30T06:43:21.086Z,95517.25
2022-10-30T06:44:22.643Z,95509.06
2022-10-30T06:45:25.019Z,95507.56
2022-10-30T06:46:30.560Z,95506.06
2022-10-30T06:47:35.909Z,95503.47
2022-10-30T06:48:37.500Z,95509.06
2022-10-30T06:49:38.993Z,95515.41
2022-10-30T06:50:40.632Z,95510.59
2022-10-30T06:51:42.393Z,95512.09
2022-10-30T06:52:44.121Z,95515.66
2022-10-30T06:53:45.675Z,95511.34
2022-10-30T06:54:47.196Z,95517.47
2022-10-30T06:55:59.875Z,95525.41
2022-10-30T06:57:01.969Z,95532.97
2022-10-30T06:58:03.590Z,95527.38
2022-10-30T06:59:05.108Z,95521.78
2022-10-30T07:00:07.943Z,95520.25
2022-10-30T07:01:09.545Z,95521.78
2022-10-30T07:02:11.574Z,95525.34
2022-10-30T07:03:13.165Z,95524.59
2022-10-30T07:04:15.036Z,95511.34
2022-10-30T07:05:16.692Z,95520.69
2022-10-30T07:06:18.454Z,95512.09
2022-10-30T07:07:20.047Z,95506.50
2022-10-30T07:08:21.569Z,95515.13
2022-10-30T07:09:23.109Z,95513.63
2022-10-30T07:10:24.703Z,95513.63
2022-10-30T07:11:26.192Z,95517.69
2022-10-30T07:12:27.699Z,95514.91
2022-10-30T07:13:29.213Z,95512.84
2022-10-30T07:14:30.718Z,95511.56
2022-10-30T07:15:32.336Z,95505.22
2022-10-30T07:16:33.874Z,95510.81
2022-10-30T07:17:35.461Z,95503.94
2022-10-30T07:18:37.096Z,95503.94
2022-10-30T07:19:38.603Z,95503.94
2022-10-30T07:20:40.128Z,95503.94
2022-10-30T07:21:41.741Z,95498.34
2022-10-30T07:22:43.268Z,95498.88
2022-10-30T07:23:44.808Z,95501.13
2022-10-30T07:24:46.325Z,95503.94
2022-10-30T07:25:47.995Z,95499.88
2022-10-30T07:26:49.519Z,95505.47
2022-10-30T07:27:52.776Z,95506.97
2022-10-30T07:28:54.393Z,95500.63
2022-10-30T07:29:55.937Z,95499.88
2022-10-30T07:31:00.559Z,95494.28
2022-10-30T07:32:03.384Z,95498.78
2022-10-30T07:33:07.128Z,95486.09
2022-10-30T07:34:08.647Z,95492.69
2022-10-30T07:35:12.782Z,95496.22
2022-10-30T07:36:15.053Z,95483.53
2022-10-30T07:37:16.653Z,95484.81
2022-10-30T07:38:18.194Z,95485.34
2022-10-30T07:39:19.716Z,95493.72
2022-10-30T07:40:21.769Z,95491.69
2022-10-30T07:41:23.291Z,95496.00
2022-10-30T07:42:24.828Z,95498.03
2022-10-30T07:43:26.328Z,95494.50
2022-10-30T07:44:27.854Z,95494.50
2022-10-30T07:45:29.888Z,95491.19
2022-10-30T07:46:31.437Z,95494.72
2022-10-30T07:47:33.004Z,95494.50
2022-10-30T07:48:34.499Z,95491.69
2022-10-30T07:49:35.997Z,95490.41
2022-10-30T07:50:37.561Z,95489.13
2022-10-30T07:51:39.116Z,95489.66
2022-10-30T07:52:40.661Z,95491.94
2022-10-30T07:53:42.217Z,95484.06
2022-10-30T07:54:43.795Z,95480.50
2022-10-30T07:55:45.474Z,95480.50
2022-10-30T07:56:46.990Z,95482.00
2022-10-30T07:57:49.393Z,95480.50
2022-10-30T07:58:50.921Z,95474.16
2022-10-30T07:59:52.447Z,95476.97
2022-10-30T08:00:54.261Z,95473.84
2022-10-30T08:01:55.890Z,95469.56
2022-10-30T08:02:58.593Z,95472.34
2022-10-30T08:04:00.488Z,95469.31
2022-10-30T08:05:02.448Z,95469.31
2022-10-30T08:06:04.228Z,95467.28
2022-10-30T08:07:05.791Z,95466.53
2022-10-30T08:08:08.273Z,95462.69
2022-10-30T08:09:10.240Z,95465.72
2022-10-30T08:10:11.748Z,95469.78
2022-10-30T08:11:13.312Z,95463.44
2022-10-30T08:12:15.108Z,95465.72
2022-10-30T08:13:18.340Z,95464.19
2022-10-30T08:14:20.966Z,95459.34
2022-10-30T08:15:23.928Z,95461.63
2022-10-30T08:16:25.601Z,95450.44
2022-10-30T08:17:27.434Z,95460.13
2022-10-30T08:18:29.042Z,95451.72
2022-10-30T08:19:30.782Z,95457.31
2022-10-30T08:20:32.299Z,95456.03
2022-10-30T08:21:33.907Z,95458.06
2022-10-30T08:22:35.449Z,95458.81
2022-10-30T08:23:37.269Z,95460.13
2022-10-30T08:24:38.781Z,95457.53
2022-10-30T08:25:40.278Z,95463.13
2022-10-30T08:26:41.802Z,95456.03
2022-10-30T08:27:59.154Z,95459.66
2022-10-30T08:29:00.709Z,95456.78
2022-10-30T08:30:02.300Z,95456.03
2022-10-30T08:31:04.137Z,95457.53
2022-10-30T08:32:05.810Z,95451.94
2022-10-30T08:33:11.069Z,95456.03
2022-10-30T08:34:12.590Z,95454.53
2022-10-30T08:35:18.706Z,95456.03
2022-10-30T08:36:21.753Z,95456.78
2022-10-30T08:37:23.468Z,95459.03
2022-10-30T08:38:26.406Z,95456.22
2022-10-30T08:39:27.938Z,95454.72
2022-10-30T08:40:29.795Z,95451.94
2022-10-30T08:41:31.449Z,95464.63
2022-10-30T08:42:32.947Z,95454.19
2022-10-30T08:43:34.772Z,95456.47
2022-10-30T08:44:36.288Z,95457.97
2022-10-30T08:45:37.877Z,95452.38
2022-10-30T08:46:39.431Z,95452.38
2022-10-30T08:47:40.937Z,95449.59
2022-10-30T08:48:42.445Z,95452.38
2022-10-30T08:49:43.960Z,95455.94
2022-10-30T08:50:45.681Z,95451.09
2022-10-30T08:51:47.261Z,95453.13
2022-10-30T08:52:50.895Z,95453.88
2022-10-30T08:53:55.403Z,95452.38
2022-10-30T08:54:56.999Z,95455.41
2022-10-30T08:55:58.524Z,95448.28
2022-10-30T08:57:00.040Z,95449.81
2022-10-30T08:58:01.792Z,95444.22
2022-10-30T08:59:03.342Z,95447.03
2022-10-30T09:00:06.413Z,95441.44
2022-10-30T09:01:07.983Z,95440.13
2022-10-30T09:02:09.692Z,95440.13
2022-10-30T09:03:11.413Z,95438.63
2022-10-30T09:04:12.910Z,95440.13
2022-10-30T09:05:14.450Z,95439.38
2022-10-30T09:06:15.942Z,95431.50
2022-10-30T09:07:17.515Z,95434.31
2022-10-30T09:08:19.007Z,95437.88
2022-10-30T09:09:20.502Z,95441.44
2022-10-30T09:10:22.039Z,95436.59
2022-10-30T09:11:23.542Z,95433.25
2022-10-30T09:12:25.085Z,95428.94
2022-10-30T09:13:26.768Z,95426.34
2022-10-30T09:14:28.363Z,95427.66
2022-10-30T09:15:30.458Z,95430.72
2022-10-30T09:16:32.004Z,95426.34
2022-10-30T09:17:33.529Z,95425.59
2022-10-30T09:18:35.098Z,95425.59
2022-10-30T09:19:36.620Z,95424.84
2022-10-30T09:20:38.562Z,95429.41
2022-10-30T09:21:40.063Z,95426.63
2022-10-30T09:22:42.259Z,95426.81
2022-10-30T09:23:44.372Z,95423.81
2022-10-30T09:24:45.960Z,95428.88
2022-10-30T09:25:47.589Z,95432.41
2022-10-30T09:26:49.302Z,95426.63
2022-10-30T09:27:50.908Z,95430.16
2022-10-30T09:28:52.454Z,95424.84
2022-10-30T09:29:53.975Z,95433.50
2022-10-30T09:30:56.946Z,95423.81
2022-10-30T09:31:59.750Z,95419.72
2022-10-30T09:33:03.116Z,95419.97
2022-10-30T09:34:05.211Z,95426.31
2022-10-30T09:35:07.594Z,95419.41
2022-10-30T09:36:09.405Z,95422.75
2022-10-30T09:37:10.919Z,95418.91
2022-10-30T09:38:13.082Z,95421.69
2022-10-30T09:39:14.719Z,95417.59
2022-10-30T09:40:59.485Z,95425.56
2022-10-30T09:42:49.728Z,95414.38
2022-10-30T09:44:20.989Z,95408.97
2022-10-30T09:45:46.986Z,95412.00
2022-10-30T09:47:23.151Z,95402.13
2022-10-30T09:48:43.829Z,95402.75
2022-10-30T09:50:00.769Z,95396.53
2022-10-30T09:51:26.481Z,95385.13
2022-10-30T09:52:33.971Z,95397.47
2022-10-30T09:53:35.438Z,95392.63
2022-10-30T09:55:04.367Z,95386.09
2022-10-30T09:56:17.938Z,95392.63
2022-10-30T09:57:38.326Z,95388.13
2022-10-30T09:58:52.700Z,95381.25
2022-10-30T10:00:10.415Z,95386.84
2022-10-30T10:01:14.988Z,95381.69
2022-10-30T10:02:22.797Z,95385.53
2022-10-30T10:03:38.988Z,95372.84
2022-10-30T10:04:46.449Z,95371.78
2022-10-30T10:05:56.256Z,95370.25
2022-10-30T10:07:04.637Z,95374.59
2022-10-30T10:08:13.430Z,95367.69
2022-10-30T10:09:20.718Z,95366.19
2022-10-30T10:10:44.255Z,95363.16
2022-10-30T10:11:55.057Z,95358.31
2022-10-30T10:13:01.046Z,95359.50
2022-10-30T10:14:09.475Z,95362.09
2022-10-30T10:15:33.576Z,95356.28
2022-10-30T10:16:39.583Z,95351.91
2022-10-30T10:17:44.693Z,95352.66
2022-10-30T10:18:47.494Z,95349.84
2022-10-30T10:19:55.679Z,95343.50
2022-10-30T10:21:01.896Z,95340.16
2022-10-30T10:22:14.375Z,95342.41
2022-10-30T10:23:26.372Z,95346.19
2022-10-30T10:24:40.348Z,95336.28
2022-10-30T10:25:50.700Z,95327.34
2022-10-30T10:27:01.712Z,95328.66
2022-10-30T10:28:29.788Z,95328.09
2022-10-30T10:29:39.301Z,95329.72
2022-10-30T10:31:33.313Z,95326.38
2022-10-30T10:32:57.616Z,95329.41
2022-10-30T10:33:59.357Z,95319.38
2022-10-30T10:35:16.164Z,95318.97
2022-10-30T10:36:32.393Z,95323.59
2022-10-30T10:37:36.818Z,95320.69
2022-10-30T10:39:06.175Z,95322.31
2022-10-30T10:40:16.589Z,95317.16
2022-10-30T10:41:30.071Z,95319.72
2022-10-30T10:43:06.483Z,95309.28
2022-10-30T10:44:43.114Z,95308.53
2022-10-30T10:45:54.357Z,95310.81
2022-10-30T10:47:01.672Z,95315.28
2022-10-30T10:48:05.809Z,95307.44
2022-10-30T10:49:39.211Z,95305.72
2022-10-30T10:50:56.897Z,95306.69
2022-10-30T10:52:09.078Z,95301.84
2022-10-30T10:53:23.857Z,95301.84
2022-10-30T10:54:31.945Z,95296.25
2022-10-30T10:55:36.922Z,95301.31
2022-10-30T10:56:42.647Z,95303.59
2022-10-30T10:57:45.397Z,95302.28
2022-10-30T10:58:53.812Z,95303.34
2022-10-30T11:00:02.756Z,95296.69
2022-10-30T11:01:09.487Z,95292.59
2022-10-30T11:02:42.100Z,95293.16
2022-10-30T11:04:03.945Z,95287.22
2022-10-30T11:05:16.236Z,95287.00
2022-10-30T11:06:22.571Z,95287.41
2022-10-30T11:07:29.484Z,95274.72
2022-10-30T11:08:34.904Z,95285.41
2022-10-30T11:09:36.510Z,95277.00
2022-10-30T11:10:38.113Z,95276.22
2022-10-30T11:11:39.646Z,95276.22
2022-10-30T11:12:41.930Z,95272.16
2022-10-30T11:13:45.676Z,95276.47
2022-10-30T11:14:47.252Z,95272.34
2022-10-30T11:16:15.808Z,95267.66
2022-10-30T11:17:44.126Z,95271.94
2022-10-30T11:18:47.658Z,95268.47
2022-10-30T11:19:54.809Z,95262.47
2022-10-30T11:21:25.089Z,95256.66
2022-10-30T11:22:33.776Z,95258.38
2022-10-30T11:23:39.075Z,95255.06
2022-10-30T11:24:40.613Z,95247.41
2022-10-30T11:25:42.175Z,95259.88
2022-10-30T11:26:43.822Z,95252.78
2022-10-30T11:27:48.849Z,95252.59
2022-10-30T11:29:04.946Z,95251.06
2022-10-30T11:30:07.017Z,95257.28
2022-10-30T11:31:35.010Z,95239.34
2022-10-30T11:32:36.648Z,95244.28
2022-10-30T11:33:38.247Z,95236.41
2022-10-30T11:34:39.829Z,95240.72
2022-10-30T11:35:44.359Z,95244.81
2022-10-30T11:36:48.042Z,95238.69
2022-10-30T11:38:12.791Z,95233.41
2022-10-30T11:39:25.891Z,95239.97
2022-10-30T11:40:27.460Z,95230.47
2022-10-30T11:41:29.052Z,95236.81
2022-10-30T11:42:31.009Z,95238.34
2022-10-30T11:43:32.840Z,95232.75
2022-10-30T11:44:34.310Z,95232.75
2022-10-30T11:45:41.658Z,95228.25
2022-10-30T11:46:43.247Z,95228.66
2022-10-30T11:47:46.465Z,95227.91
2022-10-30T11:48:54.657Z,95233.91
2022-10-30T11:50:01.901Z,95221.00
2022-10-30T11:51:04.148Z,95229.06
2022-10-30T11:52:06.859Z,95227.03
2022-10-30T11:53:17.647Z,95218.97
2022-10-30T11:54:22.232Z,95225.84
2022-10-30T11:55:28.351Z,95233.69
2022-10-30T11:56:31.825Z,95231.13
2022-10-30T11:57:37.819Z,95228.66
2022-10-30T11:58:45.993Z,95224.38
2022-10-30T11:59:48.055Z,95224.78
2022-10-30T12:01:00.947Z,95221.75
2022-10-30T12:02:19.493Z,95224.97
2022-10-30T12:03:41.540Z,95222.72
2022-10-30T12:04:43.059Z,95221.66
2022-10-30T12:05:46.452Z,95220.13
2022-10-30T12:07:15.733Z,95224.97
2022-10-30T12:08:19.918Z,95221.28
2022-10-30T12:09:22.571Z,95224.09
2022-10-30T12:10:29.820Z,95217.56
2022-10-30T12:11:34.339Z,95216.47
2022-10-30T12:12:42.542Z,95218.31
2022-10-30T12:13:44.286Z,95215.91
2022-10-30T12:14:45.837Z,95217.22
2022-10-30T12:15:50.089Z,95214.41
2022-10-30T12:16:54.507Z,95218.72
2022-10-30T12:18:01.723Z,95214.94
2022-10-30T12:19:08.701Z,95208.06
2022-10-30T12:20:15.105Z,95217.22
2022-10-30T12:21:20.223Z,95211.63
2022-10-30T12:22:33.339Z,95218.50
2022-10-30T12:23:35.157Z,95206.97
2022-10-30T12:24:39.105Z,95204.94
2022-10-30T12:25:47.797Z,95207.28
2022-10-30T12:26:53.281Z,95211.81
2022-10-30T12:28:14.036Z,95199.69
2022-10-30T12:29:18.560Z,95203.41
2022-10-30T12:30:21.021Z,95202.34
2022-10-30T12:31:50.451Z,95201.91
2022-10-30T12:33:06.500Z,95197.81
2022-10-30T12:34:40.303Z,95189.22
2022-10-30T12:35:46.693Z,95190.94
2022-10-30T12:37:01.532Z,95197.81
2022-10-30T12:38:06.325Z,95188.34
2022-10-30T12:39:16.918Z,95197.06
2022-10-30T12:40:30.256Z,95192.22
2022-10-30T12:41:39.566Z,95186.63
2022-10-30T12:42:49.822Z,95190.72
2022-10-30T12:43:59.045Z,95186.44
2022-10-30T12:45:12.356Z,95188.16